Time;durP1;ratioP1;P1;durP2;ratioP2;P2;SDS_P1;SDS_P2;PMS_P1;PMS_P2;Temp;Humidity;BMP_temperature;BMP_pressure;BME280_temperature;BME280_humidity;BME280_pressure;Samples;Min_cycle;Max_cycle;Signal;HPM_P1;HPM_P2
2023/10/06 00:02:46;;;;;;;5.80;3.42;;;5.90;99.90;;;;;;8350990;28;20108;-84
2023/10/06 00:06:48;;;;;;;5.03;3.17;;;5.90;99.90;;;;;;8377215;28;20021;-84
2023/10/06 00:10:51;;;;;;;5.30;3.05;;;5.80;99.90;;;;;;8345917;28;20025;-84
2023/10/06 00:14:52;;;;;;;6.95;3.33;;;5.70;99.90;;;;;;8356682;28;20036;-84
2023/10/06 00:18:56;;;;;;;5.43;3.30;;;5.70;99.90;;;;;;8364656;28;20033;-84
2023/10/06 00:23:04;;;;;;;5.00;2.85;;;5.70;99.90;;;;;;8349342;28;20184;-84
2023/10/06 00:27:10;;;;;;;7.20;3.22;;;5.70;99.90;;;;;;8347866;28;20075;-84
2023/10/06 00:31:12;;;;;;;5.80;3.60;;;5.50;99.90;;;;;;8371778;28;20009;-84
2023/10/06 00:35:16;;;;;;;4.70;2.90;;;5.40;99.90;;;;;;8360816;28;20017;-83
2023/10/06 00:39:17;;;;;;;4.38;2.90;;;5.30;99.90;;;;;;8351915;28;20024;-83
2023/10/06 00:43:34;;;;;;;6.25;3.65;;;5.20;99.90;;;;;;8362212;28;20028;-82
2023/10/06 00:47:38;;;;;;;6.35;2.92;;;5.20;99.90;;;;;;8371110;28;20503;-83
2023/10/06 00:51:41;;;;;;;5.65;2.92;;;5.20;99.90;;;;;;8345999;28;20156;-84
2023/10/06 00:55:44;;;;;;;6.10;3.20;;;5.10;99.90;;;;;;8367074;28;20029;-84
2023/10/06 00:59:44;;;;;;;4.97;3.00;;;5.00;99.90;;;;;;8344027;28;20025;-83
2023/10/06 01:04:08;;;;;;;5.10;2.80;;;5.00;99.90;;;;;;8375192;28;20032;-83
2023/10/06 01:08:11;;;;;;;4.85;2.85;;;4.80;99.90;;;;;;8371034;28;20293;-84
2023/10/06 01:12:17;;;;;;;5.75;2.95;;;4.70;99.90;;;;;;8360913;28;20027;-83
2023/10/06 01:16:21;;;;;;;6.45;3.78;;;4.70;99.90;;;;;;8362878;28;20025;-83
2023/10/06 01:24:31;;;;;;;7.40;3.72;;;5.00;99.90;;;;;;8392726;28;20048;-84
2023/10/06 01:28:34;;;;;;;5.05;3.15;;;5.00;99.90;;;;;;8357086;28;20038;-84
2023/10/06 01:32:35;;;;;;;5.78;2.97;;;4.80;99.90;;;;;;8375051;28;20539;-83
2023/10/06 01:36:36;;;;;;;5.07;3.08;;;4.60;99.90;;;;;;8373220;28;20013;-82
2023/10/06 01:40:45;;;;;;;5.13;2.95;;;4.60;99.90;;;;;;8357719;28;20401;-82
2023/10/06 01:44:46;;;;;;;5.00;3.20;;;4.60;99.90;;;;;;8365635;28;20051;-84
2023/10/06 01:48:47;;;;;;;5.32;2.95;;;4.40;99.90;;;;;;8344451;28;20048;-83
2023/10/06 01:52:47;;;;;;;5.57;3.08;;;4.50;99.90;;;;;;8351895;28;20049;-85
2023/10/06 01:56:48;;;;;;;5.68;3.10;;;4.50;99.90;;;;;;8370572;28;20087;-83
2023/10/06 02:00:48;;;;;;;8.55;3.53;;;4.30;99.90;;;;;;8347047;28;20492;-83
2023/10/06 02:04:50;;;;;;;6.18;3.35;;;4.40;99.90;;;;;;8347898;28;20034;-82
2023/10/06 02:08:52;;;;;;;7.90;3.10;;;4.50;99.90;;;;;;8367416;28;20500;-83
2023/10/06 02:12:53;;;;;;;6.97;3.03;;;4.40;99.90;;;;;;8369206;28;20511;-84
2023/10/06 02:16:55;;;;;;;5.22;3.75;;;4.40;99.90;;;;;;8375933;28;20040;-83
2023/10/06 02:20:55;;;;;;;6.95;3.00;;;4.20;99.90;;;;;;8364359;28;20021;-85
2023/10/06 02:24:56;;;;;;;10.27;3.22;;;4.10;99.90;;;;;;8371663;28;20029;-83
2023/10/06 02:28:57;;;;;;;6.70;3.65;;;4.10;99.90;;;;;;8355962;28;20037;-84
2023/10/06 02:32:57;;;;;;;4.43;3.40;;;4.20;99.90;;;;;;8352992;28;20028;-85
2023/10/06 02:37:00;;;;;;;5.45;3.50;;;4.20;99.90;;;;;;8364857;28;20090;-84
2023/10/06 02:41:00;;;;;;;7.43;3.35;;;4.20;99.90;;;;;;8373188;28;20468;-83
2023/10/06 02:45:01;;;;;;;6.10;3.35;;;4.00;99.90;;;;;;8354459;28;20052;-84
2023/10/06 02:49:06;;;;;;;8.20;3.72;;;4.00;99.90;;;;;;8359144;28;20025;-85
2023/10/06 02:53:13;;;;;;;6.60;3.10;;;4.00;99.90;;;;;;8361813;28;20112;-84
2023/10/06 02:57:14;;;;;;;6.03;3.28;;;3.90;99.90;;;;;;8363253;28;20489;-83
2023/10/06 03:01:16;;;;;;;4.65;3.00;;;3.90;99.90;;;;;;8348046;28;20027;-82
2023/10/06 03:05:17;;;;;;;6.45;2.85;;;3.80;99.90;;;;;;8347115;28;20021;-83
2023/10/06 03:09:18;;;;;;;5.70;3.40;;;3.90;99.90;;;;;;8356100;28;20028;-84
2023/10/06 03:13:33;;;;;;;6.55;3.47;;;4.00;99.90;;;;;;8348449;28;20028;-83
2023/10/06 03:17:34;;;;;;;6.20;3.33;;;3.80;99.90;;;;;;8356051;28;20048;-83
2023/10/06 03:21:34;;;;;;;6.30;3.20;;;3.70;99.90;;;;;;8347790;28;20017;-84
2023/10/06 03:25:35;;;;;;;5.90;3.83;;;3.70;99.90;;;;;;8352683;28;20532;-84
2023/10/06 03:29:51;;;;;;;7.03;3.72;;;3.70;99.90;;;;;;8341733;28;20021;-82
2023/10/06 03:33:55;;;;;;;7.22;3.90;;;3.80;99.90;;;;;;8347763;28;20022;-83
2023/10/06 03:38:13;;;;;;;7.50;3.70;;;3.90;99.90;;;;;;8353303;28;20040;-82
2023/10/06 03:42:17;;;;;;;7.70;3.50;;;3.90;99.90;;;;;;8363769;28;20037;-82
2023/10/06 03:46:19;;;;;;;6.32;3.53;;;3.80;99.90;;;;;;8359500;28;20508;-83
2023/10/06 03:50:20;;;;;;;5.40;3.08;;;3.80;99.90;;;;;;8350703;28;20090;-84
2023/10/06 03:54:20;;;;;;;7.95;4.15;;;3.50;99.90;;;;;;8353164;28;20373;-83
2023/10/06 03:58:25;;;;;;;8.02;3.55;;;3.50;99.90;;;;;;8348646;28;20048;-84
2023/10/06 04:02:27;;;;;;;6.50;3.30;;;3.50;99.90;;;;;;8357142;28;20111;-84
2023/10/06 04:06:27;;;;;;;5.20;3.30;;;3.70;99.90;;;;;;8372343;28;20102;-84
2023/10/06 04:10:28;;;;;;;5.13;3.28;;;3.50;99.90;;;;;;8351841;28;20025;-82
2023/10/06 04:14:31;;;;;;;6.50;3.67;;;3.40;99.90;;;;;;8363600;28;20029;-83
2023/10/06 04:18:32;;;;;;;5.20;3.60;;;3.30;99.90;;;;;;8359710;28;20066;-83
2023/10/06 04:22:38;;;;;;;5.32;3.10;;;3.20;99.90;;;;;;8360275;28;20024;-83
2023/10/06 04:26:39;;;;;;;7.50;3.67;;;3.20;99.90;;;;;;8336594;28;20075;-83
2023/10/06 04:30:42;;;;;;;8.02;3.35;;;3.20;99.90;;;;;;8330118;28;20025;-84
2023/10/06 04:34:42;;;;;;;6.40;3.50;;;3.20;99.90;;;;;;8366372;28;20689;-82
2023/10/06 04:38:43;;;;;;;6.72;3.15;;;3.20;99.90;;;;;;8368088;28;20039;-83
2023/10/06 04:42:45;;;;;;;4.70;2.78;;;3.00;99.90;;;;;;8354958;28;20091;-85
2023/10/06 04:46:45;;;;;;;4.82;3.20;;;3.00;99.90;;;;;;8368298;28;20044;-83
2023/10/06 04:50:46;;;;;;;5.20;3.05;;;2.90;99.90;;;;;;8355964;28;20029;-82
2023/10/06 04:54:47;;;;;;;6.22;3.47;;;2.90;99.90;;;;;;8368421;28;20032;-83
2023/10/06 04:58:48;;;;;;;6.55;3.45;;;2.90;99.90;;;;;;8347927;28;20536;-82
2023/10/06 05:02:50;;;;;;;6.80;3.78;;;2.80;99.90;;;;;;8350774;28;20033;-80
2023/10/06 05:06:53;;;;;;;6.88;3.70;;;3.00;99.90;;;;;;8366694;28;20029;-83
2023/10/06 05:10:55;;;;;;;10.43;4.57;;;3.00;99.90;;;;;;8349371;28;20021;-82
2023/10/06 05:14:57;;;;;;;8.70;4.68;;;3.10;99.90;;;;;;8356668;28;20087;-83
2023/10/06 05:18:57;;;;;;;8.10;4.60;;;3.10;99.90;;;;;;8349609;28;20021;-83
2023/10/06 05:23:09;;;;;;;9.13;4.40;;;3.10;99.90;;;;;;8367324;28;20028;-83
2023/10/06 05:27:10;;;;;;;9.95;4.53;;;3.10;99.90;;;;;;8362561;28;20079;-83
2023/10/06 05:31:10;;;;;;;12.57;6.13;;;3.00;99.90;;;;;;8361428;28;20393;-83
2023/10/06 05:35:13;;;;;;;6.80;3.97;;;3.00;99.90;;;;;;8349727;28;20509;-83
2023/10/06 05:39:14;;;;;;;8.52;4.30;;;3.00;99.90;;;;;;8358118;28;20018;-82
2023/10/06 05:43:18;;;;;;;8.15;4.35;;;2.90;99.90;;;;;;8343716;28;20120;-84
2023/10/06 05:47:19;;;;;;;5.50;3.95;;;3.00;99.90;;;;;;8367388;28;20029;-84
2023/10/06 05:51:21;;;;;;;6.10;4.32;;;3.00;99.90;;;;;;8346352;28;20025;-84
2023/10/06 05:55:22;;;;;;;10.00;5.97;;;3.20;99.90;;;;;;8354280;28;20024;-84
2023/10/06 05:59:23;;;;;;;9.95;6.32;;;3.30;99.90;;;;;;8371256;28;20437;-82
2023/10/06 06:03:23;;;;;;;8.15;4.90;;;3.50;99.90;;;;;;8359104;28;20025;-84
2023/10/06 06:07:24;;;;;;;13.70;5.93;;;3.50;99.90;;;;;;8365526;28;20056;-84
2023/10/06 06:11:27;;;;;;;14.95;5.90;;;3.60;99.90;;;;;;8339544;28;20032;-84
2023/10/06 06:15:28;;;;;;;10.23;6.05;;;3.80;99.90;;;;;;8363196;28;20020;-84
2023/10/06 06:19:29;;;;;;;8.43;4.93;;;4.10;99.90;;;;;;8348957;28;20044;-84
2023/10/06 06:23:33;;;;;;;7.80;4.90;;;4.50;99.90;;;;;;8348492;28;20024;-84
2023/10/06 06:27:34;;;;;;;9.18;5.65;;;4.70;99.90;;;;;;8345652;28;20028;-84
2023/10/06 06:31:34;;;;;;;19.70;10.02;;;4.70;99.90;;;;;;8349386;28;20021;-84
2023/10/06 06:35:36;;;;;;;10.43;4.95;;;4.80;99.90;;;;;;8366568;28;20044;-83
2023/10/06 06:39:37;;;;;;;9.90;4.70;;;5.00;99.90;;;;;;8381492;28;20074;-82
2023/10/06 06:43:43;;;;;;;8.65;4.60;;;5.30;99.90;;;;;;8372874;28;20025;-83
2023/10/06 06:47:44;;;;;;;8.43;4.63;;;5.40;99.90;;;;;;8363687;28;20541;-84
2023/10/06 06:51:47;;;;;;;9.13;4.78;;;5.40;99.90;;;;;;8358601;28;20021;-81
2023/10/06 06:55:47;;;;;;;7.32;4.38;;;5.30;99.90;;;;;;8344280;28;20037;-82
2023/10/06 06:59:48;;;;;;;6.95;3.83;;;5.40;99.90;;;;;;8356673;28;20464;-84
2023/10/06 07:03:49;;;;;;;7.10;4.45;;;5.50;99.90;;;;;;8346068;28;20025;-84
2023/10/06 07:07:51;;;;;;;7.88;4.32;;;5.60;99.90;;;;;;8352278;28;20036;-84
2023/10/06 07:11:51;;;;;;;7.18;4.47;;;5.70;99.90;;;;;;8344778;28;20040;-82
2023/10/06 07:15:53;;;;;;;8.15;4.72;;;5.80;99.90;;;;;;8373482;28;20056;-83
2023/10/06 07:19:54;;;;;;;10.48;5.00;;;5.80;99.90;;;;;;8367651;28;20060;-84
2023/10/06 07:23:56;;;;;;;8.77;4.57;;;5.90;99.90;;;;;;8354437;28;20071;-84
2023/10/06 07:27:58;;;;;;;7.45;4.80;;;6.30;99.90;;;;;;8365426;28;20029;-84
2023/10/06 07:32:00;;;;;;;8.95;4.88;;;6.60;99.90;;;;;;8353313;28;20544;-84
2023/10/06 07:36:01;;;;;;;8.77;5.53;;;6.60;99.90;;;;;;8345890;28;20115;-82
2023/10/06 07:40:12;;;;;;;11.75;5.80;;;6.80;99.90;;;;;;8347917;28;20032;-83
2023/10/06 07:44:14;;;;;;;10.35;5.50;;;7.20;99.90;;;;;;8341659;28;20021;-84
2023/10/06 07:48:15;;;;;;;7.85;5.43;;;7.50;99.90;;;;;;8359999;28;20107;-83
2023/10/06 07:52:17;;;;;;;10.90;7.45;;;7.70;99.90;;;;;;8347778;28;20385;-83
2023/10/06 07:56:18;;;;;;;8.88;5.80;;;7.60;99.90;;;;;;8348035;28;20020;-83
2023/10/06 08:00:38;;;;;;;9.43;6.22;;;7.90;99.90;;;;;;8356863;28;20017;-82
2023/10/06 08:04:39;;;;;;;10.53;6.53;;;8.40;99.90;;;;;;8357516;28;20081;-81
2023/10/06 08:08:39;;;;;;;14.45;7.40;;;8.70;99.90;;;;;;8360105;28;20357;-82
2023/10/06 08:12:49;;;;;;;12.25;7.20;;;9.20;99.90;;;;;;8348187;28;20654;-82
2023/10/06 08:16:50;;;;;;;13.60;7.70;;;9.40;99.90;;;;;;8356942;28;20022;-83
2023/10/06 08:20:53;;;;;;;9.07;6.72;;;9.60;99.90;;;;;;8341528;28;20374;-83
2023/10/06 08:24:54;;;;;;;13.32;8.60;;;9.60;99.90;;;;;;8343606;28;20029;-83
2023/10/06 08:28:54;;;;;;;12.95;7.82;;;9.60;99.90;;;;;;8338942;28;20162;-83
2023/10/06 08:32:55;;;;;;;14.95;9.13;;;10.00;99.90;;;;;;8357455;28;20036;-83
2023/10/06 08:36:56;;;;;;;24.02;11.63;;;10.10;99.90;;;;;;8336954;28;20485;-83
2023/10/06 08:41:01;;;;;;;19.00;10.38;;;10.70;99.90;;;;;;8334277;28;20106;-82
2023/10/06 08:45:03;;;;;;;18.08;10.98;;;11.20;99.90;;;;;;8348330;28;20025;-82
2023/10/06 08:49:05;;;;;;;16.15;10.45;;;11.40;99.90;;;;;;8332604;28;20040;-82
2023/10/06 08:53:09;;;;;;;17.52;10.15;;;11.20;99.90;;;;;;8382222;28;20013;-81
2023/10/06 08:57:11;;;;;;;19.10;10.10;;;11.20;99.90;;;;;;8388919;28;20082;-84
2023/10/06 09:01:13;;;;;;;14.85;9.80;;;11.30;99.90;;;;;;8362168;28;20075;-84
2023/10/06 09:05:14;;;;;;;18.42;10.38;;;11.60;99.90;;;;;;8356731;28;20022;-84
2023/10/06 09:09:27;;;;;;;19.17;9.50;;;11.80;99.90;;;;;;8342204;28;20032;-83
2023/10/06 09:13:28;;;;;;;15.07;8.95;;;12.40;99.90;;;;;;8358652;28;20085;-83
2023/10/06 09:17:30;;;;;;;16.15;9.25;;;13.00;99.90;;;;;;8356624;28;20021;-82
2023/10/06 09:21:32;;;;;;;14.63;8.50;;;13.30;99.90;;;;;;8353729;28;20086;-84
2023/10/06 09:25:53;;;;;;;15.40;8.27;;;14.20;99.90;;;;;;8357356;28;20017;-84
2023/10/06 09:30:07;;;;;;;14.00;7.40;;;15.00;99.90;;;;;;8369268;28;20096;-82
2023/10/06 09:34:08;;;;;;;14.68;8.95;;;15.50;99.90;;;;;;8355029;28;20653;-82
2023/10/06 09:38:13;;;;;;;12.43;7.43;;;16.00;99.90;;;;;;8349769;28;20454;-82
2023/10/06 09:42:15;;;;;;;10.65;6.45;;;16.40;99.90;;;;;;8371413;28;20025;-82
2023/10/06 09:46:16;;;;;;;10.32;7.25;;;16.80;99.90;;;;;;8365042;28;20033;-81
2023/10/06 09:50:23;;;;;;;12.48;7.00;;;16.80;99.90;;;;;;8353691;28;20112;-83
2023/10/06 09:54:24;;;;;;;14.95;7.72;;;17.20;99.90;;;;;;8354604;28;20031;-82
2023/10/06 09:58:25;;;;;;;10.30;6.45;;;17.70;99.90;;;;;;8371232;28;20029;-79
2023/10/06 10:02:29;;;;;;;11.48;6.70;;;18.00;99.90;;;;;;8346675;28;20030;-81
2023/10/06 10:06:30;;;;;;;11.13;7.30;;;18.30;99.90;;;;;;8363809;28;20021;-80
2023/10/06 10:10:38;;;;;;;13.18;6.95;;;18.70;99.90;;;;;;8365423;28;20180;-83
2023/10/06 10:14:49;;;;;;;9.95;6.85;;;19.50;99.90;;;;;;8352769;28;20029;-82
2023/10/06 10:18:58;;;;;;;11.80;7.43;;;19.30;99.90;;;;;;8359897;28;20030;-81
2023/10/06 10:23:01;;;;;;;10.93;6.95;;;19.00;99.90;;;;;;8357123;28;20029;-81
2023/10/06 10:27:12;;;;;;;10.52;7.13;;;18.90;99.90;;;;;;8345202;28;20484;-80
2023/10/06 10:31:18;;;;;;;10.15;6.05;;;19.10;99.90;;;;;;8364393;28;20095;-82
2023/10/06 10:35:18;;;;;;;13.98;6.78;;;19.50;99.90;;;;;;8330947;28;20032;-83
2023/10/06 10:39:20;;;;;;;10.50;6.50;;;19.90;99.90;;;;;;8362720;28;20202;-83
2023/10/06 10:43:21;;;;;;;9.18;6.15;;;19.90;99.90;;;;;;8352850;28;20051;-83
2023/10/06 10:47:23;;;;;;;7.90;5.32;;;20.30;99.90;;;;;;8345268;28;20111;-83
2023/10/06 10:51:24;;;;;;;11.15;5.75;;;20.60;99.90;;;;;;8363843;28;20016;-81
2023/10/06 10:55:26;;;;;;;12.52;4.75;;;21.60;99.90;;;;;;8347438;28;20025;-83
2023/10/06 11:00:00;;;;;;;8.82;5.18;;;23.30;99.90;;;;;;8352045;28;20029;-81
2023/10/06 11:04:13;;;;;;;11.18;4.75;;;22.50;99.90;;;;;;8341536;28;20469;-82
2023/10/06 11:08:14;;;;;;;10.63;5.32;;;23.60;99.90;;;;;;8343239;28;20067;-82
2023/10/06 11:12:17;;;;;;;6.55;4.20;;;23.90;99.90;;;;;;8348617;28;20150;-81
2023/10/06 11:16:18;;;;;;;8.00;5.15;;;25.20;99.90;;;;;;8344755;28;20024;-83
2023/10/06 11:20:33;;;;;;;10.60;4.88;;;24.60;99.90;;;;;;8346957;28;20031;-81
2023/10/06 11:24:34;;;;;;;9.75;5.13;;;23.40;99.90;;;;;;8344666;28;20078;-83
2023/10/06 11:28:44;;;;;;;13.05;7.70;;;24.30;99.90;;;;;;8353610;28;20049;-82
2023/10/06 11:32:46;;;;;;;8.77;4.53;;;24.20;99.90;;;;;;8342833;28;20027;-82
2023/10/06 11:36:46;;;;;;;6.53;4.10;;;22.80;99.90;;;;;;8355492;28;20028;-82
2023/10/06 11:40:47;;;;;;;7.78;3.90;;;22.60;99.90;;;;;;8342406;28;20035;-82
2023/10/06 11:44:47;;;;;;;7.03;3.45;;;24.20;99.90;;;;;;8360722;28;20055;-83
2023/10/06 11:48:49;;;;;;;6.68;3.65;;;25.90;99.90;;;;;;8350755;28;20035;-83
2023/10/06 11:52:51;;;;;;;6.05;3.88;;;26.90;99.90;;;;;;8358365;28;20086;-83
2023/10/06 11:56:53;;;;;;;9.30;6.55;;;27.50;96.00;;;;;;8338420;28;20037;-83
2023/10/06 12:00:55;;;;;;;6.28;3.60;;;28.10;94.30;;;;;;8350685;28;20025;-84
2023/10/06 12:05:09;;;;;;;5.93;3.60;;;28.60;90.30;;;;;;8355558;28;20164;-85
2023/10/06 12:09:21;;;;;;;5.05;3.05;;;28.60;85.90;;;;;;8346461;28;20024;-85
2023/10/06 12:13:22;;;;;;;4.40;2.47;;;28.40;82.20;;;;;;8341942;28;20055;-85
2023/10/06 12:17:23;;;;;;;4.68;3.47;;;29.30;83.50;;;;;;8345316;28;20021;-85
2023/10/06 12:21:24;;;;;;;7.43;3.50;;;28.90;78.90;;;;;;8350295;28;20025;-84
2023/10/06 12:26:37;;;;;;;;;;;;;;;;;;;;;
2023/10/06 12:30:47;;;;;;;4.50;3.00;;;29.50;74.70;;;;;;8297062;28;20070;-87
2023/10/06 12:34:48;;;;;;;5.72;3.33;;;29.70;77.00;;;;;;8340290;28;20029;-87
2023/10/06 12:38:49;;;;;;;5.53;4.00;;;30.10;70.90;;;;;;8351046;28;20044;-87
2023/10/06 12:42:49;;;;;;;4.57;2.78;;;30.10;71.20;;;;;;8361210;28;20598;-86
2023/10/06 12:46:50;;;;;;;4.68;2.65;;;30.00;64.30;;;;;;8355996;28;20033;-87
2023/10/06 12:50:50;;;;;;;4.35;2.55;;;30.80;64.20;;;;;;8355960;28;20080;-87
2023/10/06 12:54:51;;;;;;;4.43;2.70;;;29.20;61.50;;;;;;8358349;28;20029;-87
2023/10/06 12:58:52;;;;;;;3.50;1.85;;;29.80;64.00;;;;;;8363247;28;20059;-87
2023/10/06 13:02:52;;;;;;;3.55;2.20;;;29.80;60.40;;;;;;8353414;28;20079;-88
2023/10/06 13:06:54;;;;;;;3.90;2.60;;;30.90;62.70;;;;;;8360003;28;20028;-87
2023/10/06 13:11:18;;;;;;;3.40;1.90;;;31.10;57.50;;;;;;8348303;28;20021;-87
2023/10/06 13:15:22;;;;;;;3.92;2.35;;;30.10;53.50;;;;;;8338786;28;20075;-87
2023/10/06 13:19:23;;;;;;;4.65;2.60;;;30.60;57.20;;;;;;8354160;28;20510;-87
2023/10/06 13:23:27;;;;;;;4.00;2.45;;;30.90;57.90;;;;;;8340612;28;20033;-87
2023/10/06 13:27:27;;;;;;;4.20;2.10;;;31.40;56.50;;;;;;8353226;28;20036;-88
2023/10/06 13:31:28;;;;;;;4.22;1.77;;;32.20;54.50;;;;;;8373836;28;20029;-87
2023/10/06 13:35:29;;;;;;;4.25;2.13;;;29.60;53.70;;;;;;8342212;28;20112;-87
2023/10/06 13:39:29;;;;;;;3.33;2.10;;;29.00;56.40;;;;;;8348760;28;20017;-86
2023/10/06 13:43:30;;;;;;;3.72;1.77;;;28.80;59.60;;;;;;8344089;28;20123;-86
2023/10/06 13:47:31;;;;;;;3.28;2.20;;;26.90;62.10;;;;;;8361327;28;20619;-87
2023/10/06 13:51:33;;;;;;;4.30;2.40;;;27.00;62.60;;;;;;8355934;28;20028;-89
2023/10/06 13:55:34;;;;;;;4.18;2.10;;;27.80;59.50;;;;;;8364688;28;20056;-88
2023/10/06 13:59:35;;;;;;;3.30;1.90;;;27.60;58.10;;;;;;8352130;28;20028;-87
2023/10/06 14:03:35;;;;;;;3.72;2.20;;;25.50;61.00;;;;;;8357210;28;20097;-87
2023/10/06 14:07:37;;;;;;;4.10;2.13;;;25.10;66.10;;;;;;8360440;28;20012;-88
2023/10/06 14:11:40;;;;;;;6.22;2.30;;;25.20;65.90;;;;;;8344704;28;20427;-87
2023/10/06 14:15:47;;;;;;;4.68;2.20;;;26.00;62.00;;;;;;8343987;28;20052;-87
2023/10/06 14:19:48;;;;;;;4.55;2.60;;;26.30;62.80;;;;;;8345068;28;20070;-87
2023/10/06 14:23:53;;;;;;;3.58;1.90;;;26.70;63.40;;;;;;8346993;28;20013;-87
2023/10/06 14:27:57;;;;;;;3.25;2.13;;;25.90;64.60;;;;;;8375002;22;20417;-84
2023/10/06 14:49:03;;;;;;;5.97;2.05;;;23.50;72.80;;;;;;8359038;28;20072;-83
2023/10/06 14:53:03;;;;;;;4.18;2.28;;;22.90;75.90;;;;;;8358259;28;20025;-83
2023/10/06 14:57:05;;;;;;;3.83;2.42;;;22.30;79.80;;;;;;8346171;28;20036;-84
2023/10/06 15:01:05;;;;;;;5.50;2.55;;;22.10;78.50;;;;;;8383355;28;20028;-84
2023/10/06 15:05:06;;;;;;;3.92;2.30;;;21.40;80.10;;;;;;8375385;28;20028;-83
2023/10/06 15:09:08;;;;;;;4.22;2.28;;;20.90;86.10;;;;;;8357903;28;20400;-84
2023/10/06 15:13:13;;;;;;;4.13;2.35;;;20.60;87.00;;;;;;8355966;28;20031;-84
2023/10/06 15:17:14;;;;;;;4.30;2.20;;;20.40;86.50;;;;;;8353627;28;20497;-84
2023/10/06 15:21:15;;;;;;;4.18;2.60;;;20.30;90.20;;;;;;8358402;28;20036;-83
2023/10/06 15:25:16;;;;;;;8.38;2.30;;;20.30;90.00;;;;;;8352278;28;20118;-84
2023/10/06 15:29:20;;;;;;;6.28;2.30;;;20.20;93.70;;;;;;8366691;28;20029;-84
2023/10/06 15:33:22;;;;;;;5.28;2.30;;;19.90;91.90;;;;;;8344137;28;20025;-83
2023/10/06 15:37:23;;;;;;;4.00;2.30;;;19.70;96.30;;;;;;8351127;28;20021;-83
2023/10/06 15:41:24;;;;;;;4.55;2.40;;;19.40;98.40;;;;;;8371860;28;20043;-84
2023/10/06 15:45:24;;;;;;;3.58;2.20;;;19.40;95.80;;;;;;8370242;28;20033;-83
2023/10/06 15:49:25;;;;;;;3.78;2.25;;;19.10;97.50;;;;;;8378085;28;20025;-83
2023/10/06 15:53:28;;;;;;;4.50;2.42;;;18.90;99.80;;;;;;8381161;28;20040;-83
2023/10/06 15:57:28;;;;;;;5.88;2.58;;;18.80;99.90;;;;;;8356305;28;20024;-83
2023/10/06 16:01:29;;;;;;;3.78;2.40;;;18.50;99.90;;;;;;8351806;28;20035;-83
2023/10/06 16:05:30;;;;;;;4.40;2.67;;;18.40;99.90;;;;;;8381144;28;20044;-84
2023/10/06 16:09:30;;;;;;;6.47;3.25;;;18.20;99.90;;;;;;8348810;28;20036;-83
2023/10/06 16:13:31;;;;;;;7.60;3.13;;;18.00;99.90;;;;;;8346692;28;20025;-84
2023/10/06 16:17:34;;;;;;;5.32;2.80;;;17.90;99.90;;;;;;8392056;28;20027;-82
2023/10/06 16:21:35;;;;;;;5.28;2.50;;;17.60;99.90;;;;;;8360002;28;20028;-82
2023/10/06 16:25:40;;;;;;;3.80;2.40;;;17.20;99.90;;;;;;8360012;28;20730;-82
2023/10/06 16:29:40;;;;;;;4.53;2.30;;;16.90;99.90;;;;;;8355048;28;20053;-84
2023/10/06 16:33:43;;;;;;;5.57;2.72;;;16.50;99.90;;;;;;8365036;28;20106;-83
2023/10/06 16:37:44;;;;;;;5.00;2.58;;;16.30;99.90;;;;;;8356499;28;20029;-83
2023/10/06 16:41:45;;;;;;;4.82;2.20;;;15.90;99.90;;;;;;8402324;28;20056;-83
2023/10/06 16:45:46;;;;;;;5.00;2.45;;;15.30;99.90;;;;;;8353596;28;20036;-82
2023/10/06 16:49:46;;;;;;;4.43;2.60;;;14.90;99.90;;;;;;8371217;28;20496;-83
2023/10/06 16:53:49;;;;;;;5.80;2.70;;;14.70;99.90;;;;;;8370045;28;20021;-82
2023/10/06 16:57:53;;;;;;;6.13;3.10;;;14.40;99.90;;;;;;8364880;28;20063;-82
2023/10/06 17:01:53;;;;;;;4.93;3.15;;;14.10;99.90;;;;;;8360196;28;20088;-82
2023/10/06 17:05:57;;;;;;;5.55;3.03;;;14.00;99.90;;;;;;8358341;28;20035;-83
2023/10/06 17:09:58;;;;;;;6.93;3.72;;;14.00;99.90;;;;;;8359682;28;20017;-83
2023/10/06 17:13:58;;;;;;;6.53;3.90;;;13.80;99.90;;;;;;8353482;28;20043;-82
2023/10/06 17:18:01;;;;;;;18.25;9.10;;;13.60;99.90;;;;;;8356054;28;20033;-83
2023/10/06 17:22:01;;;;;;;10.88;6.07;;;13.60;99.90;;;;;;8379718;28;20021;-82
2023/10/06 17:26:02;;;;;;;13.50;5.97;;;13.70;99.90;;;;;;8356636;28;20116;-83
2023/10/06 17:30:07;;;;;;;7.75;5.30;;;13.60;99.90;;;;;;8372552;28;20032;-82
2023/10/06 17:34:07;;;;;;;8.82;5.32;;;13.40;99.90;;;;;;8360531;28;20103;-83
2023/10/06 17:38:08;;;;;;;19.95;14.38;;;13.10;99.90;;;;;;8368670;28;20037;-83
2023/10/06 17:42:10;;;;;;;15.00;8.52;;;12.90;99.90;;;;;;8395744;28;20028;-81
2023/10/06 17:46:15;;;;;;;13.13;8.98;;;12.70;99.90;;;;;;8355546;28;20028;-83
2023/10/06 17:50:15;;;;;;;13.80;8.73;;;12.70;99.90;;;;;;8349735;28;20021;-83
2023/10/06 17:54:16;;;;;;;14.77;8.77;;;12.70;99.90;;;;;;8356022;28;20063;-82
2023/10/06 17:58:16;;;;;;;15.20;8.45;;;12.50;99.90;;;;;;8379074;28;20389;-82
2023/10/06 18:02:18;;;;;;;13.93;8.43;;;12.40;99.90;;;;;;8350941;28;20025;-82
2023/10/06 18:06:20;;;;;;;12.75;9.05;;;12.20;99.90;;;;;;8362016;28;20103;-83
2023/10/06 18:10:22;;;;;;;19.45;10.27;;;12.10;99.90;;;;;;8365046;28;20025;-82
2023/10/06 18:14:23;;;;;;;14.02;9.25;;;11.90;99.90;;;;;;8355687;28;20362;-83
2023/10/06 18:18:24;;;;;;;12.10;6.10;;;11.90;99.90;;;;;;8372378;28;20024;-82
2023/10/06 18:22:25;;;;;;;10.95;6.65;;;11.80;99.90;;;;;;8357291;28;20044;-81
2023/10/06 18:26:27;;;;;;;10.60;7.25;;;11.60;99.90;;;;;;8351211;28;20585;-83
2023/10/06 18:30:28;;;;;;;14.63;8.38;;;11.30;99.90;;;;;;8381512;28;20029;-82
2023/10/06 18:34:29;;;;;;;12.07;8.00;;;11.20;99.90;;;;;;8355458;28;20040;-82
2023/10/06 18:38:30;;;;;;;14.15;8.80;;;11.30;99.90;;;;;;8368697;28;20017;-82
2023/10/06 18:42:30;;;;;;;15.70;8.02;;;11.10;99.90;;;;;;8373033;28;20401;-82
2023/10/06 18:46:31;;;;;;;13.40;8.57;;;11.00;99.90;;;;;;8356037;28;20047;-83
2023/10/06 18:50:33;;;;;;;13.93;8.52;;;10.90;99.90;;;;;;8365807;28;20075;-82
2023/10/06 18:54:35;;;;;;;15.88;10.93;;;10.90;99.90;;;;;;8415028;28;20025;-82
2023/10/06 18:58:36;;;;;;;17.45;10.27;;;10.90;99.90;;;;;;8374680;28;20484;-82
2023/10/06 19:02:37;;;;;;;15.00;9.27;;;10.90;99.90;;;;;;8376306;28;20064;-81
2023/10/06 19:06:39;;;;;;;14.68;8.73;;;10.80;99.90;;;;;;8369789;28;20029;-82
2023/10/06 19:10:40;;;;;;;9.65;6.78;;;10.80;99.90;;;;;;8362553;28;20020;-82
2023/10/06 19:14:42;;;;;;;9.90;6.63;;;10.70;99.90;;;;;;8363227;28;20073;-82
2023/10/06 19:18:49;;;;;;;8.38;5.95;;;10.80;99.90;;;;;;8358005;28;20074;-82
2023/10/06 19:22:51;;;;;;;9.98;6.20;;;10.70;99.90;;;;;;8379513;28;20029;-82
2023/10/06 19:26:51;;;;;;;9.68;6.25;;;10.70;99.90;;;;;;8351426;28;20037;-82
2023/10/06 19:30:56;;;;;;;9.73;6.60;;;10.60;99.90;;;;;;8356699;28;20051;-82
2023/10/06 19:34:56;;;;;;;10.93;6.68;;;10.50;99.90;;;;;;8367695;28;20023;-82
2023/10/06 19:38:57;;;;;;;12.70;6.50;;;10.50;99.90;;;;;;8372069;28;20029;-82
2023/10/06 19:42:57;;;;;;;9.10;6.63;;;10.50;99.90;;;;;;8347756;28;20028;-82
2023/10/06 19:46:58;;;;;;;11.00;6.75;;;10.30;99.90;;;;;;8354922;28;20073;-82
2023/10/06 19:50:59;;;;;;;23.15;13.48;;;10.20;99.90;;;;;;8359174;28;20028;-83
2023/10/06 19:55:00;;;;;;;16.15;10.60;;;10.20;99.90;;;;;;8343842;28;20028;-82
2023/10/06 19:59:02;;;;;;;15.75;10.25;;;10.10;99.90;;;;;;8340430;28;20030;-83
2023/10/06 20:03:02;;;;;;;19.80;11.95;;;10.00;99.90;;;;;;8385647;28;20722;-82
2023/10/06 20:07:05;;;;;;;19.00;13.13;;;10.00;99.90;;;;;;8369068;28;20036;-81
2023/10/06 20:11:05;;;;;;;18.25;10.57;;;10.00;99.90;;;;;;8362870;28;20021;-82
2023/10/06 20:15:07;;;;;;;17.95;10.68;;;9.90;99.90;;;;;;8363397;28;20027;-82
2023/10/06 20:19:07;;;;;;;17.63;9.88;;;9.80;99.90;;;;;;8362387;28;20255;-82
2023/10/06 20:23:08;;;;;;;20.20;11.98;;;9.80;99.90;;;;;;8354970;28;20028;-82
2023/10/06 20:27:08;;;;;;;24.02;11.27;;;9.70;99.90;;;;;;8369898;28;20647;-82
2023/10/06 20:31:09;;;;;;;17.52;10.48;;;9.70;99.90;;;;;;8353183;28;20035;-82
2023/10/06 20:35:10;;;;;;;29.27;15.60;;;9.80;99.90;;;;;;8373907;28;20056;-82
2023/10/06 20:39:10;;;;;;;23.25;13.98;;;9.80;99.90;;;;;;8348569;28;20025;-82
2023/10/06 20:43:11;;;;;;;22.08;13.18;;;9.90;99.90;;;;;;8364631;28;20029;-82
2023/10/06 20:47:11;;;;;;;19.75;12.60;;;9.80;99.90;;;;;;8380229;28;20033;-81
2023/10/06 20:51:16;;;;;;;19.08;10.75;;;9.70;99.90;;;;;;8356284;28;20049;-80
2023/10/06 20:55:16;;;;;;;19.65;11.18;;;9.60;99.90;;;;;;8364392;28;20025;-80
2023/10/06 20:59:17;;;;;;;19.10;11.10;;;9.50;99.90;;;;;;8353616;28;20052;-80
2023/10/06 21:03:17;;;;;;;19.63;12.52;;;9.50;99.90;;;;;;8353650;28;20064;-80
2023/10/06 21:07:18;;;;;;;18.00;10.85;;;9.50;99.90;;;;;;8364356;28;20403;-80
2023/10/06 21:11:18;;;;;;;21.42;13.02;;;9.30;99.90;;;;;;8366056;28;20041;-80
2023/10/06 21:15:23;;;;;;;19.40;12.23;;;9.20;99.90;;;;;;8370684;28;20051;-80
2023/10/06 21:19:23;;;;;;;18.38;10.77;;;9.10;99.90;;;;;;8394384;28;20021;-80
2023/10/06 21:23:25;;;;;;;18.35;10.43;;;9.20;99.90;;;;;;8374764;28;20097;-80
2023/10/06 21:27:25;;;;;;;17.40;11.43;;;9.10;99.90;;;;;;8363325;28;20450;-80